Impacts TAF Board INFO
FOR SITUATIONAL AWARENESS. NOT TO BE USED FOR FLIGHT PLANNING PURPOSES.
IDs:

KMEM - Memphis Intl, TN, US

Issued at 1732 UTC 17 Jan 2018
Updated at 2005 UTC 17 Jan 2018
Potential Impact None Slight Moderate High
Time1954Z 17/21Z 17/22Z 17/23Z 18/00Z 18/01Z 18/02Z 18/03Z 18/04Z 18/05Z 18/06Z 18/07Z 18/08Z 18/09Z>>
Type OBS PRVL PRVL PRVL PRVL PRVL PRVL PRVL PRVL PRVL PRVL PRVL PRVL PRVL
VIS 10 >6 >6 >6 >6 >6 >6 >6 >6 >6 >6 >6 >6 >6
CIG -- -- -- -- -- -- -- -- -- -- -- -- -- --
Cover CLR SCT SCT SCT SCT SCT SKC SKC SKC SKC SKC SKC SKC SKC
FltCat VFR VFR VFR VFR VFR VFR VFR VFR VFR VFR VFR VFR VFR VFR
WX -- -- -- -- -- -- -- -- -- -- -- -- -- --
WDir 300 VRB VRB VRB VRB VRB VRB VRB VRB VRB VRB VRB VRB VRB
WSpd 5 3 3 3 3 3 3 3 3 3 3 3 3 3
WGst -- -- -- -- -- -- -- -- -- -- -- -- -- --

Raw TAF
KMEM 171732Z 1718/1824 VRB03KT P6SM SCT018
  FM180200 VRB03KT P6SM SKC
  FM181500 22007KT P6SM SKC


Raw METAR
KMEM 171954Z 30005KT 10SM CLR M07/M12 A3069 RMK AO2 SLP399 T10671122 $
KMEM 171854Z 29006KT 10SM FEW017 M07/M12 A3071 RMK AO2 SLP404 T10671122 $
KMEM 171754Z 30004KT 10SM FEW017 M08/M13 A3073 RMK AO2 SLP413 4/001 T10781128 11072 21139 58002 $

METAR Board
Radar Display
Forecast Discussion

FOR SITUATIONAL AWARENESS. NOT TO BE USED FOR FLIGHT PLANNING PURPOSES.